Time;durP1;ratioP1;P1;durP2;ratioP2;P2;SDS_P1;SDS_P2;PMS_P1;PMS_P2;Temp;Humidity;BMP_temperature;BMP_pressure;BME280_temperature;BME280_humidity;BME280_pressure;Samples;Min_cycle;Max_cycle;Signal;HPM_P1;HPM_P2
2022/01/29 00:02:12;;;;;;;41.85;26.10;;;7.70;83.80;;;;;;5066528;28;20040;-80
2022/01/29 00:04:37;;;;;;;41.47;25.40;;;7.70;83.80;;;;;;5066262;28;20070;-79
2022/01/29 00:07:03;;;;;;;39.50;24.08;;;7.70;83.80;;;;;;5055653;28;20388;-79
2022/01/29 00:09:29;;;;;;;36.83;23.30;;;7.70;83.80;;;;;;5062542;28;20475;-78
2022/01/29 00:11:54;;;;;;;31.45;19.17;;;7.70;83.90;;;;;;5061014;28;20032;-79
2022/01/29 00:14:21;;;;;;;39.78;24.88;;;7.70;83.90;;;;;;5068148;28;20111;-78
2022/01/29 00:16:47;;;;;;;39.53;23.65;;;7.70;84.00;;;;;;5064539;28;20021;-79
2022/01/29 00:19:12;;;;;;;35.58;22.02;;;7.70;84.00;;;;;;5062053;28;20119;-79
2022/01/29 00:21:38;;;;;;;29.15;17.13;;;7.70;84.00;;;;;;5067651;28;20032;-79
2022/01/29 00:24:03;;;;;;;38.53;23.60;;;7.70;84.00;;;;;;5064074;28;20051;-79
2022/01/29 00:26:29;;;;;;;38.83;22.70;;;7.70;84.00;;;;;;5062211;28;20074;-78
2022/01/29 00:28:57;;;;;;;38.08;24.08;;;7.60;84.20;;;;;;5065058;28;20028;-79
2022/01/29 00:31:22;;;;;;;38.38;22.20;;;7.60;85.10;;;;;;5070396;28;20426;-79
2022/01/29 00:33:48;;;;;;;39.38;24.55;;;7.60;84.50;;;;;;5069972;28;20021;-77
2022/01/29 00:36:13;;;;;;;35.10;21.52;;;7.60;84.90;;;;;;5065612;28;20021;-78
2022/01/29 00:38:39;;;;;;;51.22;29.88;;;7.50;85.00;;;;;;5068960;28;20039;-78
2022/01/29 00:41:05;;;;;;;36.33;22.45;;;7.50;85.30;;;;;;5072065;28;20039;-78
2022/01/29 00:43:30;;;;;;;46.40;27.58;;;7.50;85.50;;;;;;5070896;28;20123;-78
2022/01/29 00:45:56;;;;;;;43.22;26.23;;;7.50;85.80;;;;;;5070443;28;20023;-78
2022/01/29 00:48:22;;;;;;;40.90;25.27;;;7.40;85.90;;;;;;5072737;28;20398;-79
2022/01/29 00:50:47;;;;;;;37.03;23.40;;;7.40;86.10;;;;;;5071899;28;20020;-78
2022/01/29 00:53:13;;;;;;;38.95;23.48;;;7.40;86.10;;;;;;5065091;28;20028;-79
2022/01/29 00:55:41;;;;;;;38.70;24.00;;;7.50;86.20;;;;;;5061651;28;20025;-78
2022/01/29 00:58:07;;;;;;;39.38;25.05;;;7.50;86.20;;;;;;5064014;28;20028;-78
2022/01/29 01:00:32;;;;;;;36.95;22.00;;;7.50;86.30;;;;;;5071147;28;20021;-79
2022/01/29 01:02:58;;;;;;;36.70;21.33;;;7.40;86.40;;;;;;5069799;28;20043;-79
2022/01/29 01:05:23;;;;;;;41.92;25.83;;;7.40;86.40;;;;;;5064406;28;20033;-80
2022/01/29 01:07:49;;;;;;;33.13;21.58;;;7.50;86.50;;;;;;5061920;28;20035;-79
2022/01/29 01:10:14;;;;;;;37.83;22.85;;;7.40;86.50;;;;;;5060710;28;20145;-79
2022/01/29 01:12:40;;;;;;;33.50;21.13;;;7.50;86.60;;;;;;5067708;28;20012;-78
2022/01/29 01:15:07;;;;;;;41.38;23.80;;;7.50;86.50;;;;;;5071035;28;20466;-78
2022/01/29 01:17:32;;;;;;;32.72;20.05;;;7.50;86.60;;;;;;5063473;28;20025;-78
2022/01/29 01:19:58;;;;;;;35.80;21.60;;;7.50;86.60;;;;;;5062007;28;20502;-79
2022/01/29 01:22:23;;;;;;;30.52;19.65;;;7.50;86.50;;;;;;5055803;28;20104;-78
2022/01/29 01:24:49;;;;;;;33.97;20.80;;;7.50;86.50;;;;;;5057879;28;20040;-78
2022/01/29 01:27:15;;;;;;;31.60;19.75;;;7.50;86.60;;;;;;5058374;28;20090;-78
2022/01/29 01:29:41;;;;;;;33.50;20.25;;;7.50;86.60;;;;;;5059780;28;20032;-78
2022/01/29 01:32:11;;;;;;;38.70;22.27;;;7.50;86.70;;;;;;5055022;28;20509;-78
2022/01/29 01:34:39;;;;;;;36.25;22.17;;;7.50;86.80;;;;;;5056596;28;20098;-77
2022/01/29 01:37:09;;;;;;;36.97;22.92;;;7.50;86.80;;;;;;5056397;28;20514;-79
2022/01/29 01:39:37;;;;;;;30.00;19.00;;;7.50;87.00;;;;;;5058785;28;20036;-79
2022/01/29 01:42:05;;;;;;;35.45;21.95;;;7.60;87.10;;;;;;5053168;28;20063;-79
2022/01/29 01:44:45;;;;;;;32.80;19.83;;;7.60;87.10;;;;;;5061570;28;20025;-79
2022/01/29 01:47:11;;;;;;;36.03;21.65;;;7.60;87.10;;;;;;5058570;28;20031;-79
2022/01/29 01:49:38;;;;;;;44.28;27.25;;;7.60;87.10;;;;;;5061413;28;20021;-78
2022/01/29 01:52:08;;;;;;;38.05;21.90;;;7.60;87.10;;;;;;5058011;28;20518;-78
2022/01/29 01:54:34;;;;;;;34.58;20.02;;;7.60;87.20;;;;;;5061023;28;20043;-78
2022/01/29 01:57:00;;;;;;;37.95;24.05;;;7.60;87.10;;;;;;5060739;28;20371;-77
2022/01/29 01:59:26;;;;;;;27.10;17.20;;;7.60;87.20;;;;;;5057563;28;20024;-77
2022/01/29 02:01:52;;;;;;;35.50;22.25;;;7.60;87.20;;;;;;5062173;28;20393;-78
2022/01/29 02:04:18;;;;;;;33.17;20.20;;;7.60;87.20;;;;;;5064192;28;20027;-77
2022/01/29 02:06:43;;;;;;;27.38;17.40;;;7.60;87.20;;;;;;5060587;28;20438;-79
2022/01/29 02:09:11;;;;;;;35.97;20.73;;;7.70;87.20;;;;;;5058710;28;20040;-78
2022/01/29 02:11:39;;;;;;;34.97;21.27;;;7.70;87.20;;;;;;5056200;28;20052;-78
2022/01/29 02:14:08;;;;;;;26.13;16.73;;;7.70;87.20;;;;;;5080153;28;20035;-79
2022/01/29 02:16:34;;;;;;;26.58;17.10;;;7.80;87.30;;;;;;5067372;28;20483;-78
2022/01/29 02:18:59;;;;;;;30.40;19.38;;;7.70;87.30;;;;;;5068827;28;20056;-78
2022/01/29 02:21:27;;;;;;;25.00;16.83;;;7.70;87.40;;;;;;5062906;28;20082;-78
2022/01/29 02:23:53;;;;;;;32.53;20.80;;;7.70;87.30;;;;;;5054379;28;20535;-77
2022/01/29 02:26:18;;;;;;;32.88;20.45;;;7.70;87.40;;;;;;5062230;28;20116;-78
2022/01/29 02:28:44;;;;;;;35.90;22.15;;;7.70;87.50;;;;;;5064293;28;20035;-78
2022/01/29 02:31:09;;;;;;;32.22;21.17;;;7.70;87.60;;;;;;5068418;28;20029;-78
2022/01/29 02:33:38;;;;;;;23.20;15.85;;;7.70;87.70;;;;;;5061920;28;20028;-77
2022/01/29 02:36:04;;;;;;;29.90;20.23;;;7.70;87.70;;;;;;5059009;28;20139;-77
2022/01/29 02:38:30;;;;;;;27.15;18.88;;;7.70;87.80;;;;;;5066945;28;20111;-78
2022/01/29 02:41:03;;;;;;;27.13;18.75;;;7.70;87.90;;;;;;5063005;28;20544;-79
2022/01/29 02:43:38;;;;;;;25.45;16.55;;;7.70;88.00;;;;;;5067343;28;20444;-78
2022/01/29 02:46:19;;;;;;;28.92;20.52;;;7.70;88.10;;;;;;5082691;28;20016;-78
2022/01/29 02:48:46;;;;;;;23.08;16.33;;;7.70;88.10;;;;;;5060130;28;20024;-78
2022/01/29 02:51:12;;;;;;;24.60;16.80;;;7.70;88.20;;;;;;5067287;28;20155;-79
2022/01/29 02:53:37;;;;;;;20.65;14.48;;;7.70;88.30;;;;;;5060205;28;20450;-80
2022/01/29 02:56:03;;;;;;;18.23;13.18;;;7.80;88.20;;;;;;5060769;28;20107;-80
2022/01/29 02:58:29;;;;;;;20.23;14.15;;;7.80;88.20;;;;;;5068108;28;20025;-81
2022/01/29 03:00:55;;;;;;;19.27;14.45;;;7.80;88.20;;;;;;5070483;28;20498;-79
2022/01/29 03:03:20;;;;;;;27.52;19.02;;;7.80;88.20;;;;;;5066094;28;20182;-79
2022/01/29 03:05:46;;;;;;;19.65;13.68;;;7.80;88.50;;;;;;5066011;28;20016;-79
2022/01/29 03:08:12;;;;;;;21.73;15.60;;;7.80;88.50;;;;;;5060853;28;20030;-79
2022/01/29 03:10:37;;;;;;;21.08;15.90;;;7.80;88.40;;;;;;5060355;28;20036;-78
2022/01/29 03:13:04;;;;;;;18.55;13.23;;;7.80;88.50;;;;;;5064452;28;20024;-78
2022/01/29 03:15:30;;;;;;;22.25;15.20;;;7.90;88.50;;;;;;5071943;28;20078;-79
2022/01/29 03:17:56;;;;;;;26.83;17.77;;;7.80;88.50;;;;;;5068596;28;20020;-78
2022/01/29 03:20:22;;;;;;;24.30;17.63;;;7.80;88.50;;;;;;5068362;28;20108;-78
2022/01/29 03:22:47;;;;;;;20.75;15.38;;;7.90;88.60;;;;;;5063608;28;20037;-78
2022/01/29 03:25:13;;;;;;;21.67;14.90;;;7.80;88.70;;;;;;5064342;28;20024;-77
2022/01/29 03:27:38;;;;;;;18.52;12.77;;;7.90;88.70;;;;;;5062041;28;20028;-78
2022/01/29 03:30:06;;;;;;;19.95;15.18;;;7.90;88.70;;;;;;5057982;28;20505;-77
2022/01/29 03:32:32;;;;;;;20.27;13.80;;;7.90;88.60;;;;;;5063928;28;20028;-77
2022/01/29 03:34:57;;;;;;;21.15;15.60;;;7.90;88.60;;;;;;5061976;28;20482;-78
2022/01/29 03:37:23;;;;;;;35.08;21.15;;;7.90;88.70;;;;;;5058418;28;20021;-78
2022/01/29 03:39:49;;;;;;;22.23;15.88;;;7.90;88.80;;;;;;5066195;28;20107;-78
2022/01/29 03:42:15;;;;;;;20.08;14.55;;;7.90;88.90;;;;;;5061998;28;20476;-77
2022/01/29 03:44:42;;;;;;;20.20;14.70;;;7.90;88.90;;;;;;5068785;28;20159;-77
2022/01/29 03:47:07;;;;;;;30.23;18.10;;;7.90;89.00;;;;;;5059403;28;20017;-77
2022/01/29 03:49:33;;;;;;;15.73;11.10;;;7.90;89.10;;;;;;5057724;28;20495;-77
2022/01/29 03:51:59;;;;;;;20.63;14.90;;;7.90;89.10;;;;;;5049648;28;20036;-77
2022/01/29 03:54:24;;;;;;;29.67;19.40;;;7.90;89.10;;;;;;5059930;28;20391;-77
2022/01/29 03:56:50;;;;;;;20.63;14.57;;;7.90;89.20;;;;;;5066180;28;20036;-78
2022/01/29 03:59:15;;;;;;;25.00;16.52;;;7.90;89.30;;;;;;5062565;28;20029;-78
2022/01/29 04:01:41;;;;;;;16.17;11.82;;;7.90;89.30;;;;;;5062854;28;20112;-78
2022/01/29 04:04:06;;;;;;;16.70;11.88;;;7.90;89.20;;;;;;5067710;28;20433;-77
2022/01/29 04:06:32;;;;;;;16.85;11.80;;;8.00;89.20;;;;;;5070908;28;20728;-78
2022/01/29 04:08:58;;;;;;;22.70;13.18;;;8.00;89.20;;;;;;5065881;28;20462;-79
2022/01/29 04:11:24;;;;;;;32.42;17.23;;;8.00;89.20;;;;;;5066188;28;20028;-78
2022/01/29 04:13:50;;;;;;;20.55;14.55;;;8.00;89.10;;;;;;5065786;28;20025;-77
2022/01/29 04:16:17;;;;;;;20.80;13.82;;;8.00;89.10;;;;;;5059269;28;20032;-78
2022/01/29 04:18:43;;;;;;;56.78;20.25;;;8.00;89.10;;;;;;5060792;28;20082;-77
2022/01/29 04:21:09;;;;;;;47.15;17.40;;;8.00;89.20;;;;;;5059419;28;20048;-77
2022/01/29 04:23:35;;;;;;;47.40;18.75;;;8.00;89.30;;;;;;5060633;28;20076;-77
2022/01/29 04:26:02;;;;;;;24.55;15.93;;;8.00;89.40;;;;;;5057074;28;20039;-78
2022/01/29 04:28:37;;;;;;;32.65;19.95;;;7.90;89.50;;;;;;5062270;28;20024;-76
2022/01/29 04:31:18;;;;;;;21.27;14.27;;;8.00;89.70;;;;;;5056178;28;20032;-77
2022/01/29 04:33:44;;;;;;;22.05;14.63;;;8.00;89.80;;;;;;5059342;28;20021;-77
2022/01/29 04:36:09;;;;;;;27.13;15.23;;;8.00;89.70;;;;;;5063249;28;20025;-77
2022/01/29 04:38:35;;;;;;;21.80;14.73;;;8.00;90.10;;;;;;5060592;28;20035;-77
2022/01/29 04:41:04;;;;;;;20.33;13.70;;;8.00;89.80;;;;;;5059571;28;20506;-76
2022/01/29 04:43:36;;;;;;;27.52;15.10;;;8.10;89.80;;;;;;5060386;28;20114;-76
2022/01/29 04:46:02;;;;;;;26.38;15.18;;;8.10;89.80;;;;;;5063335;28;20028;-77
2022/01/29 04:48:28;;;;;;;24.52;15.27;;;8.10;89.70;;;;;;5056646;28;20025;-78
2022/01/29 04:50:54;;;;;;;22.48;15.32;;;8.10;89.80;;;;;;5062215;28;20044;-79
2022/01/29 04:53:20;;;;;;;21.52;14.55;;;8.20;89.90;;;;;;5057774;28;20045;-80
2022/01/29 04:55:46;;;;;;;18.58;12.25;;;8.20;90.00;;;;;;5059562;28;20040;-78
2022/01/29 04:58:11;;;;;;;23.75;16.23;;;8.20;90.00;;;;;;5064552;28;20020;-79
2022/01/29 05:00:37;;;;;;;29.17;19.05;;;8.20;90.00;;;;;;5058363;28;20040;-78
2022/01/29 05:03:09;;;;;;;29.88;18.23;;;8.20;90.00;;;;;;5057842;28;20376;-79
2022/01/29 05:05:35;;;;;;;39.10;20.98;;;8.30;90.10;;;;;;5061222;28;20032;-79
2022/01/29 05:08:01;;;;;;;32.80;21.52;;;8.20;90.10;;;;;;5068908;28;20032;-80
2022/01/29 05:10:27;;;;;;;28.00;16.58;;;8.30;90.20;;;;;;5065353;28;20032;-81
2022/01/29 05:12:58;;;;;;;28.17;18.25;;;8.30;90.20;;;;;;5077775;28;20100;-79
2022/01/29 05:15:36;;;;;;;33.38;20.27;;;8.30;90.20;;;;;;5066685;28;20032;-78
2022/01/29 05:28:59;;;;;;;31.90;19.38;;;8.40;90.30;;;;;;5067153;28;20037;-78
2022/01/29 05:31:25;;;;;;;28.70;17.95;;;8.40;90.30;;;;;;5063751;28;20032;-78
2022/01/29 05:33:50;;;;;;;27.15;17.90;;;8.40;90.30;;;;;;5065607;28;20499;-78
2022/01/29 05:36:16;;;;;;;29.27;18.73;;;8.50;90.30;;;;;;5064733;28;20650;-78
2022/01/29 05:38:43;;;;;;;29.60;18.92;;;8.50;90.30;;;;;;5070179;28;20448;-78
2022/01/29 05:41:08;;;;;;;29.00;19.48;;;8.50;90.30;;;;;;5069652;28;20025;-77
2022/01/29 05:43:34;;;;;;;25.88;16.65;;;8.50;90.40;;;;;;5064062;28;20037;-77
2022/01/29 05:46:00;;;;;;;22.52;14.77;;;8.50;90.40;;;;;;5067603;28;20480;-78
2022/01/29 05:48:25;;;;;;;27.15;16.52;;;8.50;90.40;;;;;;5061969;28;20067;-78
2022/01/29 05:50:52;;;;;;;23.08;15.27;;;8.60;90.30;;;;;;5069760;28;20020;-78
2022/01/29 05:53:17;;;;;;;25.13;14.98;;;8.60;90.30;;;;;;5063401;28;20056;-78
2022/01/29 05:55:43;;;;;;;27.38;17.30;;;8.60;90.30;;;;;;5068191;28;20634;-76
2022/01/29 05:58:09;;;;;;;27.15;16.98;;;8.60;90.30;;;;;;5067496;28;20020;-76
2022/01/29 06:00:34;;;;;;;26.85;19.42;;;8.60;90.30;;;;;;5066511;28;20039;-77
2022/01/29 06:03:05;;;;;;;31.77;18.52;;;8.60;90.30;;;;;;5070439;28;20067;-77
2022/01/29 06:05:31;;;;;;;33.60;21.52;;;8.70;90.30;;;;;;5058637;28;20057;-77
2022/01/29 06:07:57;;;;;;;28.10;17.73;;;8.70;90.30;;;;;;5070453;28;20060;-79
2022/01/29 06:10:23;;;;;;;28.88;18.42;;;8.70;90.20;;;;;;5068490;28;20020;-76
2022/01/29 06:13:05;;;;;;;23.10;15.25;;;8.70;90.20;;;;;;5074414;28;20020;-76
2022/01/29 06:15:53;;;;;;;25.08;16.45;;;8.70;90.20;;;;;;5069264;28;20020;-77
2022/01/29 06:18:21;;;;;;;27.73;17.58;;;8.70;90.20;;;;;;5064353;28;20025;-77
2022/01/29 06:20:50;;;;;;;33.55;20.98;;;8.80;90.20;;;;;;5065614;28;20028;-76
2022/01/29 06:23:20;;;;;;;29.58;19.23;;;8.80;90.20;;;;;;5069467;28;20056;-76
2022/01/29 06:25:46;;;;;;;25.80;16.75;;;8.80;90.30;;;;;;5062271;28;20036;-77
2022/01/29 06:28:11;;;;;;;25.15;17.00;;;8.80;90.20;;;;;;5057549;28;20028;-77
2022/01/29 06:30:37;;;;;;;27.50;16.92;;;8.90;90.20;;;;;;5066520;28;20102;-77
2022/01/29 06:33:11;;;;;;;24.65;16.13;;;8.90;90.20;;;;;;5068025;28;20017;-76
2022/01/29 06:35:38;;;;;;;25.13;16.00;;;8.90;90.40;;;;;;5065993;28;20051;-77
2022/01/29 06:38:05;;;;;;;32.22;21.23;;;8.90;90.20;;;;;;5069526;28;20028;-77
2022/01/29 06:40:30;;;;;;;21.27;14.23;;;8.90;90.20;;;;;;5069662;28;20126;-76
2022/01/29 06:42:56;;;;;;;24.35;15.98;;;8.90;90.20;;;;;;5065884;28;20095;-77
2022/01/29 06:45:22;;;;;;;27.48;17.88;;;8.90;90.20;;;;;;5058526;28;20033;-77
2022/01/29 06:47:48;;;;;;;23.75;14.57;;;8.90;90.20;;;;;;5062365;28;20025;-77
2022/01/29 06:50:14;;;;;;;24.85;15.98;;;8.90;90.20;;;;;;5063526;28;20043;-77
2022/01/29 06:52:39;;;;;;;23.63;15.73;;;9.00;90.20;;;;;;5053189;28;20060;-78
2022/01/29 06:55:05;;;;;;;30.95;19.90;;;9.00;90.20;;;;;;5065926;28;20036;-78
2022/01/29 06:57:31;;;;;;;26.38;17.15;;;9.00;90.20;;;;;;5062401;28;20146;-78
2022/01/29 06:59:56;;;;;;;24.95;16.80;;;9.00;90.20;;;;;;5063948;28;20021;-78
2022/01/29 07:02:22;;;;;;;22.90;15.32;;;9.00;90.20;;;;;;5066875;28;20077;-79
2022/01/29 07:04:47;;;;;;;21.48;14.35;;;9.00;90.20;;;;;;5067738;28;20387;-78
2022/01/29 07:07:13;;;;;;;23.77;14.95;;;9.00;90.20;;;;;;5056651;28;20025;-78
2022/01/29 07:09:39;;;;;;;21.25;15.60;;;9.10;90.20;;;;;;5066002;28;20035;-77
2022/01/29 07:12:09;;;;;;;22.15;14.57;;;9.10;90.20;;;;;;5062471;28;20013;-78
2022/01/29 07:14:39;;;;;;;22.63;16.00;;;9.10;90.20;;;;;;5081108;28;20046;-77
2022/01/29 07:17:13;;;;;;;20.05;13.68;;;9.10;90.20;;;;;;5061266;28;20027;-78
2022/01/29 07:19:39;;;;;;;24.27;15.15;;;9.10;90.30;;;;;;5062512;28;20381;-78
2022/01/29 07:22:05;;;;;;;21.45;14.63;;;9.10;90.30;;;;;;5069675;28;20036;-77
2022/01/29 07:24:32;;;;;;;19.33;13.13;;;9.10;90.30;;;;;;5068198;28;20399;-77
2022/01/29 07:26:58;;;;;;;13.18;8.85;;;9.10;90.30;;;;;;5060770;28;20050;-76
2022/01/29 07:29:24;;;;;;;15.02;10.82;;;9.20;90.30;;;;;;5068735;28;20023;-76
2022/01/29 07:31:50;;;;;;;14.23;10.10;;;9.20;90.30;;;;;;5061093;28;20043;-76
2022/01/29 07:34:16;;;;;;;20.27;13.63;;;9.20;90.30;;;;;;5067686;28;20074;-76
2022/01/29 07:36:42;;;;;;;17.08;11.90;;;9.30;90.30;;;;;;5068137;28;20767;-76
2022/01/29 07:39:07;;;;;;;14.90;10.48;;;9.30;90.30;;;;;;5066678;28;20116;-76
2022/01/29 07:41:33;;;;;;;18.30;12.00;;;9.30;90.20;;;;;;5068851;28;20048;-78
2022/01/29 07:43:59;;;;;;;12.93;9.27;;;9.30;90.20;;;;;;5068914;28;20143;-79
2022/01/29 07:46:24;;;;;;;15.25;11.02;;;9.30;90.20;;;;;;5063277;28;20024;-79
2022/01/29 07:48:50;;;;;;;13.52;10.30;;;9.30;90.20;;;;;;5059303;28;20052;-80
2022/01/29 07:51:15;;;;;;;14.13;10.48;;;9.40;90.20;;;;;;5062818;28;20075;-78
2022/01/29 07:53:41;;;;;;;15.13;9.63;;;9.40;90.30;;;;;;5069693;28;20028;-77
2022/01/29 07:56:06;;;;;;;15.27;9.88;;;9.40;90.30;;;;;;5074915;28;20016;-77
2022/01/29 07:58:32;;;;;;;13.43;10.38;;;9.40;90.30;;;;;;5079629;28;20425;-78
2022/01/29 08:00:57;;;;;;;12.05;9.10;;;9.40;90.30;;;;;;5075300;28;20051;-80
2022/01/29 08:03:23;;;;;;;10.63;8.00;;;9.40;90.30;;;;;;5080413;28;20039;-78
2022/01/29 08:05:48;;;;;;;12.07;8.23;;;9.40;90.30;;;;;;5078401;28;20027;-79
2022/01/29 08:08:14;;;;;;;11.20;7.85;;;9.40;90.30;;;;;;5077025;28;20016;-77
2022/01/29 08:10:40;;;;;;;10.10;6.93;;;9.50;90.40;;;;;;5074796;28;20391;-78
2022/01/29 08:13:05;;;;;;;13.48;10.73;;;9.50;90.30;;;;;;5074594;28;20024;-79
2022/01/29 08:15:31;;;;;;;12.23;8.57;;;9.50;90.30;;;;;;5075887;28;20712;-78
2022/01/29 08:17:56;;;;;;;17.60;9.38;;;9.50;90.30;;;;;;5074809;28;20017;-77
2022/01/29 08:20:22;;;;;;;9.10;6.93;;;9.60;90.70;;;;;;5075270;28;20758;-77
2022/01/29 08:22:48;;;;;;;13.82;9.30;;;9.60;90.40;;;;;;5079350;28;20379;-77
2022/01/29 08:25:14;;;;;;;12.95;9.20;;;9.60;90.30;;;;;;5074160;28;20360;-77
2022/01/29 08:27:40;;;;;;;12.65;8.60;;;9.60;90.40;;;;;;5076379;28;20060;-77
2022/01/29 08:30:06;;;;;;;11.90;8.90;;;9.60;90.40;;;;;;5075906;28;20486;-78
2022/01/29 08:32:33;;;;;;;14.80;8.70;;;9.60;90.40;;;;;;5066313;28;20127;-73
2022/01/29 08:34:58;;;;;;;12.60;8.95;;;9.60;90.70;;;;;;5075677;28;20139;-74
2022/01/29 08:37:24;;;;;;;14.00;8.43;;;9.60;90.40;;;;;;5073698;28;20064;-76
2022/01/29 08:39:49;;;;;;;9.00;6.90;;;9.70;90.40;;;;;;5074643;28;20024;-76
2022/01/29 08:42:15;;;;;;;10.15;6.72;;;9.70;90.40;;;;;;5070863;28;20064;-75
2022/01/29 08:44:42;;;;;;;13.88;9.15;;;9.70;90.40;;;;;;5070406;28;20028;-76
2022/01/29 08:47:08;;;;;;;11.77;7.57;;;9.70;90.40;;;;;;5076255;28;20017;-76
2022/01/29 08:49:34;;;;;;;12.80;9.40;;;9.70;90.40;;;;;;5076549;28;20508;-76
2022/01/29 08:51:59;;;;;;;10.98;8.23;;;9.80;90.40;;;;;;5075247;28;20024;-77
2022/01/29 08:54:25;;;;;;;13.02;9.48;;;9.70;90.30;;;;;;5077782;28;20112;-76
2022/01/29 08:56:50;;;;;;;12.98;8.05;;;9.80;90.40;;;;;;5080675;28;20043;-77
2022/01/29 08:59:16;;;;;;;11.23;7.88;;;9.80;90.40;;;;;;5081346;28;20468;-78
2022/01/29 09:01:41;;;;;;;13.80;10.40;;;9.80;90.40;;;;;;5081578;28;20364;-75
2022/01/29 09:04:08;;;;;;;16.10;9.13;;;9.80;90.40;;;;;;5076666;28;20027;-75
2022/01/29 09:06:34;;;;;;;13.15;9.23;;;9.80;90.50;;;;;;5078401;28;20031;-74
2022/01/29 09:08:59;;;;;;;10.95;7.70;;;9.80;90.50;;;;;;5066899;28;20107;-74
2022/01/29 09:11:25;;;;;;;18.73;12.38;;;9.80;90.40;;;;;;5066060;28;20083;-74
2022/01/29 09:13:50;;;;;;;14.93;9.52;;;9.80;90.50;;;;;;5065223;28;20017;-74
2022/01/29 09:16:16;;;;;;;15.82;10.25;;;9.80;90.50;;;;;;5072536;28;20021;-74
2022/01/29 09:18:42;;;;;;;16.80;10.68;;;9.80;90.60;;;;;;5067043;28;20028;-74
2022/01/29 09:21:07;;;;;;;11.63;7.93;;;9.80;90.60;;;;;;5062718;28;20048;-73
2022/01/29 09:23:33;;;;;;;11.43;8.32;;;9.80;90.60;;;;;;5059679;28;20090;-73
2022/01/29 09:25:58;;;;;;;12.32;8.30;;;9.90;90.60;;;;;;5069710;28;20051;-74
2022/01/29 09:28:24;;;;;;;13.30;8.23;;;9.90;90.50;;;;;;5067372;28;20052;-73
2022/01/29 09:30:50;;;;;;;9.90;6.90;;;9.90;90.50;;;;;;5072256;28;20064;-72
2022/01/29 09:33:16;;;;;;;11.05;7.55;;;9.90;90.50;;;;;;5064832;28;20506;-74
2022/01/29 09:35:42;;;;;;;11.75;8.13;;;10.00;90.50;;;;;;5061378;28;20021;-74
2022/01/29 09:38:09;;;;;;;11.90;8.00;;;10.00;90.50;;;;;;5058407;28;20124;-74
2022/01/29 09:40:35;;;;;;;12.57;7.20;;;10.00;90.50;;;;;;5065288;28;20043;-75
2022/01/29 09:43:02;;;;;;;17.45;8.55;;;10.00;90.60;;;;;;5075964;28;20090;-75
2022/01/29 09:45:28;;;;;;;13.02;7.90;;;10.00;90.60;;;;;;5072923;28;20024;-75
2022/01/29 09:48:01;;;;;;;15.85;9.85;;;10.00;90.60;;;;;;5077697;28;20361;-75
2022/01/29 09:50:31;;;;;;;10.38;6.95;;;10.00;90.60;;;;;;5079478;28;20027;-75
2022/01/29 09:52:58;;;;;;;8.60;5.95;;;10.10;90.60;;;;;;5078501;28;20505;-75
2022/01/29 09:55:24;;;;;;;10.23;6.57;;;10.10;90.60;;;;;;5077128;28;20016;-74
2022/01/29 09:57:49;;;;;;;13.00;6.65;;;10.10;90.50;;;;;;5076832;28;20031;-75
2022/01/29 10:00:15;;;;;;;11.65;7.32;;;10.10;90.50;;;;;;5076083;28;20032;-74
2022/01/29 10:02:41;;;;;;;9.57;6.72;;;10.10;90.60;;;;;;5078345;28;20161;-75
2022/01/29 10:05:09;;;;;;;13.48;7.20;;;10.10;90.60;;;;;;5081136;28;20479;-74
2022/01/29 10:07:34;;;;;;;13.25;7.95;;;10.10;90.60;;;;;;5077869;28;20024;-75
2022/01/29 10:10:03;;;;;;;12.63;6.07;;;10.20;90.60;;;;;;5081451;28;20489;-75
2022/01/29 10:12:31;;;;;;;9.63;6.15;;;10.20;90.50;;;;;;5079569;28;20016;-75
2022/01/29 10:15:00;;;;;;;9.30;5.65;;;10.20;90.50;;;;;;5076462;28;20582;-75
2022/01/29 10:17:48;;;;;;;10.02;5.88;;;10.20;90.50;;;;;;5081079;28;20021;-75
2022/01/29 10:20:26;;;;;;;8.65;6.35;;;10.20;90.40;;;;;;5080731;28;20577;-75
2022/01/29 10:23:02;;;;;;;8.55;5.00;;;10.30;90.40;;;;;;5080276;28;20036;-75
2022/01/29 10:25:33;;;;;;;8.45;5.45;;;10.30;90.40;;;;;;5074549;28;20060;-76
2022/01/29 10:28:11;;;;;;;7.25;4.07;;;10.30;90.30;;;;;;5062346;28;20028;-76
2022/01/29 10:30:54;;;;;;;7.53;4.80;;;10.30;90.30;;;;;;5063698;28;20388;-76
2022/01/29 10:33:30;;;;;;;6.68;4.78;;;10.30;90.20;;;;;;5063378;28;20036;-76
2022/01/29 10:36:05;;;;;;;8.30;4.88;;;10.40;90.20;;;;;;5061887;28;20021;-76
2022/01/29 10:38:33;;;;;;;6.40;4.05;;;10.40;90.20;;;;;;5056647;28;20033;-76
2022/01/29 10:41:34;;;;;;;7.88;5.18;;;10.40;90.10;;;;;;5068848;28;20021;-76
2022/01/29 10:46:39;;;;;;;6.15;4.20;;;10.40;90.10;;;;;;5057564;28;20032;-76
2022/01/29 10:49:06;;;;;;;5.53;3.70;;;10.50;90.10;;;;;;5057553;28;20055;-76
2022/01/29 10:51:33;;;;;;;7.10;3.58;;;10.50;90.00;;;;;;5056983;28;20859;-76
2022/01/29 10:54:18;;;;;;;6.63;3.58;;;10.50;90.00;;;;;;5064091;28;20025;-75
2022/01/29 10:56:55;;;;;;;7.10;3.85;;;10.60;89.90;;;;;;5062135;28;20012;-76
2022/01/29 10:59:21;;;;;;;8.05;4.22;;;10.60;89.70;;;;;;5062073;28;20115;-75
2022/01/29 11:01:54;;;;;;;6.93;4.00;;;10.60;89.70;;;;;;5056957;28;20539;-76
2022/01/29 11:04:20;;;;;;;4.30;3.47;;;10.60;89.60;;;;;;5059747;28;20483;-75
2022/01/29 11:06:47;;;;;;;7.22;3.83;;;10.60;89.40;;;;;;5062408;28;20039;-75
2022/01/29 11:09:15;;;;;;;8.05;3.90;;;10.70;89.40;;;;;;5057289;28;20032;-77
2022/01/29 11:11:42;;;;;;;6.07;3.20;;;10.70;89.20;;;;;;5062153;28;20035;-77
2022/01/29 11:14:09;;;;;;;6.15;3.88;;;10.70;89.20;;;;;;5060745;28;20017;-77
2022/01/29 11:16:36;;;;;;;5.05;3.10;;;10.70;89.00;;;;;;5060749;28;20677;-77
2022/01/29 11:19:02;;;;;;;5.07;3.22;;;10.70;88.90;;;;;;5059374;28;20112;-77
2022/01/29 11:21:29;;;;;;;5.65;3.20;;;10.80;88.80;;;;;;5065050;28;20021;-78
2022/01/29 11:23:54;;;;;;;5.93;3.47;;;10.80;88.70;;;;;;5062971;28;20037;-76
2022/01/29 11:26:20;;;;;;;7.30;3.83;;;10.80;88.60;;;;;;5055545;28;20035;-78
2022/01/29 11:28:46;;;;;;;5.75;3.15;;;10.80;88.30;;;;;;5060416;28;20511;-77
2022/01/29 11:31:13;;;;;;;5.63;3.50;;;10.80;88.20;;;;;;5063875;28;20023;-76
2022/01/29 11:33:57;;;;;;;4.68;3.00;;;10.80;88.10;;;;;;5063956;28;20036;-77
2022/01/29 11:36:42;;;;;;;4.35;2.38;;;10.90;88.20;;;;;;5063885;28;20029;-75
2022/01/29 11:39:29;;;;;;;5.38;2.80;;;10.90;88.10;;;;;;5058842;28;20059;-75
2022/01/29 11:42:13;;;;;;;5.03;2.63;;;11.00;88.00;;;;;;5063976;28;20035;-76
2022/01/29 11:44:40;;;;;;;5.43;2.70;;;11.00;87.70;;;;;;5064741;28;20130;-75
2022/01/29 11:47:27;;;;;;;3.92;2.42;;;11.00;87.70;;;;;;5061954;28;20032;-76
2022/01/29 11:50:13;;;;;;;4.65;2.40;;;11.00;87.50;;;;;;5062867;28;20115;-76
2022/01/29 11:53:05;;;;;;;4.47;2.20;;;11.00;87.50;;;;;;5067087;28;20033;-76
2022/01/29 11:55:35;;;;;;;4.00;2.27;;;11.10;87.40;;;;;;5062187;28;20041;-76
2022/01/29 11:58:13;;;;;;;4.28;2.50;;;11.10;87.30;;;;;;5064354;28;20016;-76
2022/01/29 12:00:40;;;;;;;3.80;2.10;;;11.10;87.20;;;;;;5059114;28;20061;-76
2022/01/29 12:03:06;;;;;;;4.15;1.98;;;11.10;87.10;;;;;;5064913;28;20032;-76
2022/01/29 12:06:29;;;;;;;3.60;2.08;;;11.10;87.00;;;;;;5059559;28;20031;-76
2022/01/29 12:08:59;;;;;;;3.85;2.15;;;11.20;86.80;;;;;;5021827;28;20032;-76
2022/01/29 12:11:25;;;;;;;5.18;2.22;;;11.20;86.70;;;;;;5057727;28;20522;-76
2022/01/29 12:14:13;;;;;;;4.97;2.10;;;11.20;86.60;;;;;;5073160;28;20104;-76
2022/01/29 12:16:54;;;;;;;7.15;2.35;;;11.20;86.50;;;;;;5065166;28;20036;-76
2022/01/29 12:19:41;;;;;;;5.78;2.47;;;11.30;86.30;;;;;;5061240;28;20078;-76
2022/01/29 12:22:21;;;;;;;4.75;2.00;;;11.30;86.20;;;;;;5060271;28;20510;-77
2022/01/29 12:24:59;;;;;;;8.25;2.60;;;11.30;86.00;;;;;;5062646;28;20055;-77
2022/01/29 12:27:47;;;;;;;6.88;3.88;;;11.30;85.80;;;;;;5066183;28;20028;-76
2022/01/29 12:30:31;;;;;;;14.15;9.88;;;11.30;85.70;;;;;;5062174;28;20021;-76
2022/01/29 12:33:04;;;;;;;10.48;8.50;;;11.30;85.60;;;;;;5067017;28;20040;-76
2022/01/29 12:35:45;;;;;;;12.32;6.38;;;11.40;85.60;;;;;;5067884;28;20661;-76
2022/01/29 12:38:15;;;;;;;9.77;5.50;;;11.40;85.40;;;;;;5068048;28;20475;-76
2022/01/29 12:40:51;;;;;;;11.93;4.97;;;11.40;85.30;;;;;;5066500;28;20021;-76
2022/01/29 12:43:30;;;;;;;18.92;8.07;;;11.40;85.30;;;;;;5079319;28;20048;-76
2022/01/29 12:46:14;;;;;;;13.68;4.90;;;11.40;85.20;;;;;;5064829;28;20031;-77
2022/01/29 12:48:41;;;;;;;8.70;3.75;;;11.50;85.10;;;;;;5062064;28;20034;-76
2022/01/29 12:51:10;;;;;;;22.67;10.77;;;11.50;85.00;;;;;;5067529;28;20028;-76
2022/01/29 12:53:36;;;;;;;11.30;5.25;;;11.50;85.00;;;;;;5077403;28;20036;-76
2022/01/29 12:56:10;;;;;;;9.68;5.10;;;11.50;84.90;;;;;;5078233;28;20059;-76
2022/01/29 12:58:40;;;;;;;13.07;7.03;;;11.50;84.90;;;;;;5074386;28;20041;-76
2022/01/29 13:01:17;;;;;;;6.07;3.35;;;11.50;84.70;;;;;;5068462;28;20605;-76